Time;durP1;ratioP1;P1;durP2;ratioP2;P2;SDS_P1;SDS_P2;PMS_P1;PMS_P2;Temp;Humidity;BMP_temperature;BMP_pressure;BME280_temperature;BME280_humidity;BME280_pressure;Samples;Min_cycle;Max_cycle;Signal;HPM_P1;HPM_P2
2021/12/16 00:07:33;;;;;;;4.55;2.60;;;26.40;61.60;;;;;;4183581;28;20072;-55
2021/12/16 00:32:00;;;;;;;4.43;2.70;;;26.50;61.80;;;;;;4170512;28;20052;-53
2021/12/16 00:34:04;;;;;;;4.35;2.72;;;26.50;61.80;;;;;;4181850;28;20060;-53
2021/12/16 00:36:08;;;;;;;4.68;3.08;;;26.40;62.00;;;;;;4182028;28;20574;-53
2021/12/16 00:38:11;;;;;;;4.38;2.88;;;26.40;61.90;;;;;;4181354;28;20098;-52
2021/12/16 00:40:13;;;;;;;;;;;26.50;62.00;;;;;;4181741;28;20098;-52
2021/12/16 00:45:08;;;;;;;5.20;2.90;;;26.50;61.80;;;;;;4135531;28;20052;-53
2021/12/16 00:47:26;;;;;;;4.88;2.90;;;26.50;61.90;;;;;;4181912;28;20074;-49
2021/12/16 00:56:15;;;;;;;4.78;2.75;;;26.50;61.80;;;;;;4182322;28;20052;-54
2021/12/16 00:58:21;;;;;;;4.97;3.00;;;26.50;61.90;;;;;;4169626;28;20057;-53
2021/12/16 01:35:01;;;;;;;5.80;3.40;;;26.70;61.70;;;;;;4210231;28;21643;-54
2021/12/16 01:50:51;;;;;;;4.80;2.38;;;26.70;61.50;;;;;;4210046;28;20383;-53
2021/12/16 01:57:44;;;;;;;6.55;2.70;;;26.70;61.60;;;;;;4210317;28;20190;-50
2021/12/16 01:59:39;;;;;;;3.90;2.67;;;26.70;61.50;;;;;;4208999;28;20452;-53
2021/12/16 02:01:42;;;;;;;5.80;2.90;;;26.70;60.90;;;;;;4209936;28;20059;-52
2021/12/16 02:03:52;;;;;;;3.83;2.10;;;26.80;61.50;;;;;;4227606;27;20448;-53
2021/12/16 02:08:20;;;;;;;3.97;2.50;;;26.80;61.40;;;;;;4212052;28;20139;-54
2021/12/16 02:10:30;;;;;;;5.43;2.70;;;26.80;61.40;;;;;;4208979;28;20134;-51
2021/12/16 02:12:51;;;;;;;3.40;2.35;;;26.80;61.40;;;;;;4207031;28;20694;-53
2021/12/16 02:29:28;;;;;;;4.65;2.20;;;26.90;61.40;;;;;;4144631;28;20088;-53
2021/12/16 02:35:46;;;;;;;5.90;2.88;;;26.90;61.40;;;;;;4198882;28;20048;-54
2021/12/16 02:37:49;;;;;;;5.60;2.70;;;26.90;61.40;;;;;;4198914;28;20157;-51
2021/12/16 02:39:51;;;;;;;4.00;2.40;;;26.90;61.40;;;;;;4199434;28;20066;-52
2021/12/16 02:42:07;;;;;;;6.38;2.53;;;26.90;61.30;;;;;;4197412;28;20067;-52
2021/12/16 02:48:34;;;;;;;4.30;2.08;;;26.90;61.20;;;;;;4200060;28;20040;-55
2021/12/16 02:50:36;;;;;;;3.60;2.17;;;26.90;61.10;;;;;;4197597;28;20162;-54
2021/12/16 02:52:39;;;;;;;4.55;2.47;;;26.90;61.10;;;;;;4199912;28;20145;-53
2021/12/16 02:54:42;;;;;;;6.40;2.33;;;26.90;61.10;;;;;;4196746;28;20178;-53
2021/12/16 02:56:44;;;;;;;4.40;2.25;;;26.90;61.10;;;;;;4199955;28;20059;-52
2021/12/16 02:58:50;;;;;;;7.70;2.97;;;26.90;61.10;;;;;;4197646;28;20055;-49
2021/12/16 03:01:03;;;;;;;3.92;2.15;;;26.90;61.00;;;;;;4199559;28;20892;-55
2021/12/16 03:03:05;;;;;;;4.93;2.33;;;26.90;61.00;;;;;;4198199;28;20056;-55
2021/12/16 03:05:10;;;;;;;3.40;2.20;;;26.90;61.00;;;;;;4198299;28;20048;-50
2021/12/16 03:07:14;;;;;;;3.97;2.10;;;26.90;60.90;;;;;;4197165;28;20066;-52
2021/12/16 03:09:25;;;;;;;5.45;2.20;;;26.90;60.90;;;;;;4198724;28;20173;-53
2021/12/16 03:13:51;;;;;;;4.18;2.50;;;26.90;60.80;;;;;;4199672;28;20482;-53
2021/12/16 03:16:05;;;;;;;5.63;2.42;;;26.90;60.70;;;;;;4198784;28;20467;-55
2021/12/16 03:21:04;;;;;;;4.25;2.10;;;26.90;60.60;;;;;;4185023;28;20060;-55
2021/12/16 03:25:42;;;;;;;3.45;2.20;;;27.00;60.60;;;;;;4197467;28;21269;-51
2021/12/16 03:37:25;;;;;;;5.57;2.30;;;27.00;60.40;;;;;;4194217;28;21171;-50
2021/12/16 03:39:31;;;;;;;5.50;2.57;;;27.00;60.40;;;;;;4196732;28;20154;-53
2021/12/16 03:41:34;;;;;;;4.63;2.10;;;27.00;60.40;;;;;;4197433;28;20324;-52
2021/12/16 03:43:38;;;;;;;3.28;1.90;;;27.00;60.40;;;;;;4197645;28;20135;-57
2021/12/16 03:48:17;;;;;;;3.63;2.00;;;27.00;60.20;;;;;;4198954;28;20149;-55
2021/12/16 03:50:22;;;;;;;4.20;2.00;;;27.00;60.30;;;;;;4198553;28;20136;-55
2021/12/16 03:52:24;;;;;;;4.85;2.08;;;27.00;60.20;;;;;;4197145;28;20051;-55
2021/12/16 03:54:41;;;;;;;4.57;2.20;;;27.00;60.50;;;;;;4198329;28;20456;-55
2021/12/16 03:56:44;;;;;;;6.25;2.30;;;27.00;60.00;;;;;;4198143;28;20068;-52
2021/12/16 03:58:46;;;;;;;6.72;2.22;;;27.00;60.00;;;;;;4197169;28;20519;-56
2021/12/16 04:02:21;;;;;;;5.50;2.42;;;27.00;59.40;;;;;;4209593;27;20410;-51
2021/12/16 04:04:23;;;;;;;3.53;1.95;;;27.00;60.00;;;;;;4212892;28;20070;-52
2021/12/16 04:06:28;;;;;;;3.92;2.03;;;27.00;59.90;;;;;;4212711;28;20043;-51
2021/12/16 04:08:30;;;;;;;7.45;2.40;;;27.10;59.90;;;;;;4215369;28;20104;-53
2021/12/16 04:10:52;;;;;;;5.43;2.00;;;27.00;59.70;;;;;;4211403;28;20518;-53
2021/12/16 04:12:54;;;;;;;5.25;2.50;;;27.00;59.70;;;;;;4208727;28;20154;-55
2021/12/16 04:14:59;;;;;;;7.78;2.38;;;27.00;59.60;;;;;;4209521;28;20080;-54
2021/12/16 04:17:03;;;;;;;6.00;2.40;;;27.00;59.40;;;;;;4204268;28;20059;-55
2021/12/16 04:19:09;;;;;;;6.07;2.50;;;27.00;59.40;;;;;;4205182;28;20491;-52
2021/12/16 04:21:11;;;;;;;4.63;2.33;;;27.00;59.10;;;;;;4206277;28;20200;-54
2021/12/16 04:23:14;;;;;;;7.63;3.30;;;27.00;59.10;;;;;;4208827;28;20612;-55
2021/12/16 04:25:30;;;;;;;6.78;3.38;;;27.00;58.80;;;;;;4203627;28;20063;-52
2021/12/16 04:27:34;;;;;;;5.43;2.25;;;27.00;58.70;;;;;;4201750;28;20152;-55
2021/12/16 04:29:37;;;;;;;5.63;2.58;;;27.00;58.90;;;;;;4205059;28;20048;-49
2021/12/16 04:31:41;;;;;;;5.60;2.22;;;27.00;58.90;;;;;;4205904;28;20056;-53
2021/12/16 04:33:43;;;;;;;6.43;2.55;;;27.00;58.60;;;;;;4202954;28;20058;-49
2021/12/16 04:35:45;;;;;;;5.83;2.33;;;27.00;57.90;;;;;;4190436;28;20045;-52
2021/12/16 04:37:49;;;;;;;6.93;2.70;;;27.00;58.60;;;;;;4193311;28;20368;-55
2021/12/16 04:39:51;;;;;;;5.28;2.25;;;27.00;58.40;;;;;;4192027;28;20044;-52
2021/12/16 04:41:55;;;;;;;4.93;2.43;;;26.90;58.40;;;;;;4188899;28;20416;-56
2021/12/16 04:43:57;;;;;;;8.82;2.67;;;26.90;58.10;;;;;;4190150;28;20052;-52
2021/12/16 04:46:00;;;;;;;4.87;2.17;;;27.00;58.20;;;;;;4188633;28;20048;-53
2021/12/16 04:48:04;;;;;;;;;;;26.90;58.30;;;;;;4191434;28;20655;-53
2021/12/16 04:50:08;;;;;;;4.75;2.30;;;26.90;58.50;;;;;;4209374;28;20408;-50
2021/12/16 04:52:15;;;;;;;6.00;2.05;;;26.90;58.00;;;;;;4190967;28;20052;-51
2021/12/16 04:54:19;;;;;;;7.75;2.72;;;26.90;58.40;;;;;;4191682;28;20059;-54
2021/12/16 04:56:22;;;;;;;6.68;2.75;;;26.90;58.10;;;;;;4188162;28;20068;-54
2021/12/16 04:58:24;;;;;;;8.68;3.10;;;26.90;58.10;;;;;;4187020;28;20063;-51
2021/12/16 05:00:27;;;;;;;5.38;2.38;;;26.90;57.80;;;;;;4191940;28;20052;-53
2021/12/16 05:02:30;;;;;;;5.30;3.08;;;26.90;58.20;;;;;;4190737;28;20071;-50
2021/12/16 05:04:32;;;;;;;7.32;2.67;;;26.90;58.10;;;;;;4188324;28;20060;-53
2021/12/16 05:06:34;;;;;;;6.83;2.97;;;26.90;58.10;;;;;;4187503;28;20093;-51
2021/12/16 05:08:38;;;;;;;6.10;2.30;;;26.80;57.80;;;;;;4194209;28;20047;-50
2021/12/16 05:10:40;;;;;;;7.05;2.20;;;26.90;58.30;;;;;;4190457;28;20045;-54
2021/12/16 05:12:50;;;;;;;4.97;2.30;;;26.90;58.30;;;;;;4180649;28;20048;-53
2021/12/16 05:14:53;;;;;;;6.68;2.60;;;26.90;58.20;;;;;;4178589;28;20712;-51
2021/12/16 05:16:55;;;;;;;4.78;2.20;;;26.80;57.80;;;;;;4182646;28;20048;-54
2021/12/16 05:18:57;;;;;;;7.77;2.77;;;26.80;57.80;;;;;;4176207;28;20076;-52
2021/12/16 05:21:04;;;;;;;6.50;2.07;;;26.80;57.80;;;;;;4175726;28;20079;-54
2021/12/16 05:27:48;;;;;;;4.13;2.00;;;26.80;57.80;;;;;;4175220;28;20048;-53
2021/12/16 05:29:50;;;;;;;7.70;2.00;;;26.90;58.00;;;;;;4174470;28;20060;-55
2021/12/16 05:31:54;;;;;;;7.63;2.90;;;26.80;57.60;;;;;;4181650;28;20135;-48
2021/12/16 05:33:58;;;;;;;5.82;2.15;;;26.90;57.80;;;;;;4178116;28;20056;-54
2021/12/16 05:36:01;;;;;;;5.65;2.03;;;26.80;57.80;;;;;;4177072;28;20063;-54
2021/12/16 05:38:04;;;;;;;5.78;2.03;;;26.80;57.70;;;;;;4176547;28;20068;-53
2021/12/16 05:40:07;;;;;;;6.45;2.22;;;26.80;57.80;;;;;;4182190;28;20441;-53
2021/12/16 05:42:09;;;;;;;5.40;1.95;;;26.80;57.70;;;;;;4174564;28;20696;-54
2021/12/16 05:44:12;;;;;;;5.53;2.10;;;26.80;57.80;;;;;;4175530;28;20064;-54
2021/12/16 05:46:18;;;;;;;5.93;2.40;;;26.80;57.40;;;;;;4179104;28;20755;-52
2021/12/16 05:48:24;;;;;;;6.28;1.77;;;26.80;57.60;;;;;;4181518;28;20044;-48
2021/12/16 05:50:28;;;;;;;5.60;1.85;;;26.80;57.80;;;;;;4174877;28;20079;-50
2021/12/16 05:52:31;;;;;;;5.25;2.22;;;26.80;57.60;;;;;;4175308;28;20048;-52
2021/12/16 05:54:33;;;;;;;5.33;1.93;;;26.80;57.50;;;;;;4179329;28;20048;-51
2021/12/16 05:56:36;;;;;;;6.18;2.03;;;26.80;57.60;;;;;;4179055;28;20044;-52
2021/12/16 05:58:39;;;;;;;5.38;2.20;;;26.70;57.30;;;;;;4174812;28;20449;-50
2021/12/16 06:00:43;;;;;;;5.72;2.33;;;26.80;57.10;;;;;;4172953;28;20049;-53
2021/12/16 06:02:45;;;;;;;6.10;2.38;;;26.80;57.20;;;;;;4179345;28;20143;-53
2021/12/16 06:04:50;;;;;;;5.05;2.03;;;26.80;57.20;;;;;;4179546;28;20048;-51
2021/12/16 06:06:52;;;;;;;5.55;2.28;;;26.80;57.40;;;;;;4175674;28;20139;-50
2021/12/16 06:08:56;;;;;;;6.03;2.55;;;26.70;57.20;;;;;;4178422;28;20049;-50
2021/12/16 06:11:15;;;;;;;5.85;2.25;;;26.70;57.00;;;;;;4180640;28;20391;-50
2021/12/16 06:13:18;;;;;;;5.60;2.30;;;26.70;57.20;;;;;;4177106;28;20159;-51
2021/12/16 06:15:41;;;;;;;4.55;1.90;;;26.70;56.90;;;;;;4176056;28;20127;-53
2021/12/16 06:26:23;;;;;;;9.02;2.50;;;26.70;57.00;;;;;;4169781;28;20076;-54
2021/12/16 06:27:36;;;;;;;6.05;2.30;;;26.60;56.70;;;;;;4190128;28;20134;-53
2021/12/16 06:29:42;;;;;;;6.18;2.50;;;26.70;56.90;;;;;;4170315;28;20056;-53
2021/12/16 06:31:45;;;;;;;6.03;2.22;;;26.60;56.50;;;;;;4169219;28;21308;-55
2021/12/16 06:33:47;;;;;;;8.60;2.30;;;26.60;56.50;;;;;;4174286;28;20050;-52
2021/12/16 06:35:52;;;;;;;7.63;2.30;;;26.60;56.50;;;;;;4171940;28;20101;-55
2021/12/16 06:37:54;;;;;;;8.32;2.28;;;26.60;56.50;;;;;;4170421;28;20053;-50
2021/12/16 06:39:57;;;;;;;5.05;2.78;;;26.60;56.40;;;;;;4172316;28;20044;-53
2021/12/16 06:42:05;;;;;;;6.90;2.20;;;26.60;56.40;;;;;;4172548;28;20060;-51
2021/12/16 06:44:18;;;;;;;11.52;2.45;;;26.60;56.30;;;;;;4170571;28;20053;-54
2021/12/16 06:46:30;;;;;;;8.85;2.30;;;26.60;56.30;;;;;;4173367;28;20049;-55
2021/12/16 06:48:35;;;;;;;8.02;2.60;;;26.60;56.20;;;;;;4172866;28;20891;-54
2021/12/16 06:52:47;;;;;;;5.63;2.47;;;26.60;56.30;;;;;;4168307;28;20048;-54
2021/12/16 06:57:06;;;;;;;4.18;2.00;;;26.50;56.00;;;;;;4172328;28;20088;-53
2021/12/16 06:59:24;;;;;;;5.57;1.98;;;26.50;56.00;;;;;;4169296;28;20590;-50
2021/12/16 07:02:19;;;;;;;6.90;2.30;;;26.50;55.40;;;;;;4189208;27;20440;-55
2021/12/16 07:04:21;;;;;;;6.32;2.20;;;26.50;55.90;;;;;;4188785;28;20060;-54
2021/12/16 07:06:30;;;;;;;6.05;2.17;;;26.50;55.90;;;;;;4188728;28;20045;-49
2021/12/16 07:08:32;;;;;;;5.68;1.90;;;26.50;55.90;;;;;;4188992;28;20163;-56
2021/12/16 07:10:34;;;;;;;5.77;2.30;;;26.50;55.90;;;;;;4189487;28;20048;-55
2021/12/16 07:12:38;;;;;;;5.32;2.58;;;26.50;55.80;;;;;;4185384;28;20083;-52
2021/12/16 07:14:40;;;;;;;5.32;2.50;;;26.50;55.80;;;;;;4186232;28;20048;-55
2021/12/16 07:16:48;;;;;;;9.90;2.73;;;26.50;55.80;;;;;;4187204;28;20051;-54
2021/12/16 07:18:51;;;;;;;7.53;2.45;;;26.50;55.70;;;;;;4188592;28;21247;-54
2021/12/16 07:20:53;;;;;;;5.18;2.47;;;26.50;55.70;;;;;;4183790;28;20149;-53
2021/12/16 07:22:57;;;;;;;9.83;2.57;;;26.50;55.70;;;;;;4190750;28;20139;-52
2021/12/16 07:25:02;;;;;;;7.78;2.58;;;26.50;55.60;;;;;;4189845;28;20317;-55
2021/12/16 07:27:07;;;;;;;6.22;2.47;;;26.50;55.70;;;;;;4188487;28;20059;-51
2021/12/16 07:29:09;;;;;;;6.38;2.67;;;26.40;55.60;;;;;;4191352;28;20516;-54
2021/12/16 07:31:11;;;;;;;5.35;2.53;;;26.40;55.70;;;;;;4189797;28;20044;-54
2021/12/16 07:33:14;;;;;;;6.47;2.05;;;26.40;55.60;;;;;;4184214;28;20249;-55
2021/12/16 07:35:20;;;;;;;5.03;2.37;;;26.40;55.70;;;;;;4183976;28;20044;-53
2021/12/16 07:37:22;;;;;;;6.50;2.30;;;26.40;55.60;;;;;;4186011;28;20167;-55
2021/12/16 07:39:29;;;;;;;6.43;2.03;;;26.40;55.60;;;;;;4186031;28;20055;-49
2021/12/16 07:41:34;;;;;;;5.15;2.03;;;26.40;55.60;;;;;;4186863;28;20059;-54
2021/12/16 07:44:10;;;;;;;5.72;2.33;;;26.40;55.60;;;;;;4186792;28;20708;-56
2021/12/16 07:46:04;;;;;;;9.98;2.72;;;26.40;55.50;;;;;;4186793;28;20545;-55
2021/12/16 07:48:06;;;;;;;6.65;2.30;;;26.40;55.60;;;;;;4186075;28;20131;-55
2021/12/16 07:50:10;;;;;;;5.07;2.20;;;26.30;55.40;;;;;;4188046;28;20109;-52
2021/12/16 07:52:18;;;;;;;6.15;2.15;;;26.30;55.40;;;;;;4186515;28;20577;-56
2021/12/16 07:54:21;;;;;;;5.72;2.40;;;26.30;55.40;;;;;;4185523;28;20056;-52
2021/12/16 07:56:23;;;;;;;;;;;26.30;55.40;;;;;;4185515;28;20045;-55
2021/12/16 07:58:25;;;;;;;6.43;2.13;;;26.30;55.40;;;;;;4184253;28;19929;-56
2021/12/16 08:00:33;;;;;;;6.95;2.10;;;26.30;55.40;;;;;;4187605;28;20113;-56
2021/12/16 08:02:37;;;;;;;5.55;2.42;;;26.30;55.30;;;;;;4186116;28;20048;-54
2021/12/16 08:04:45;;;;;;;4.65;2.08;;;26.30;55.40;;;;;;4190810;28;20059;-50
2021/12/16 08:06:54;;;;;;;7.88;2.47;;;26.30;55.40;;;;;;4194454;28;20080;-53
2021/12/16 08:09:00;;;;;;;5.68;2.08;;;26.30;55.40;;;;;;4199278;28;20124;-53
2021/12/16 08:11:03;;;;;;;6.47;2.15;;;26.30;55.40;;;;;;4199867;28;20052;-52
2021/12/16 08:13:04;;;;;;;;;;;26.20;55.40;;;;;;4189418;28;20045;-56
2021/12/16 08:15:08;;;;;;;6.28;2.25;;;26.20;55.40;;;;;;4186123;28;20015;-54
2021/12/16 08:17:11;;;;;;;6.00;2.40;;;26.20;55.40;;;;;;4183593;28;20177;-53
2021/12/16 08:19:13;;;;;;;5.68;2.28;;;26.20;55.30;;;;;;4177834;28;20076;-51
2021/12/16 08:21:16;;;;;;;7.72;2.85;;;26.20;55.40;;;;;;4175334;28;20060;-55
2021/12/16 08:23:18;;;;;;;;;;;26.20;54.90;;;;;;4178336;28;20672;-54
2021/12/16 08:25:22;;;;;;;6.35;2.22;;;26.20;55.30;;;;;;4176036;28;20011;-49
2021/12/16 08:27:24;;;;;;;8.23;2.25;;;26.20;55.50;;;;;;4172214;28;20165;-51
2021/12/16 08:29:27;;;;;;;5.47;1.67;;;26.20;56.00;;;;;;4174526;28;20148;-54
2021/12/16 08:31:29;;;;;;;5.67;2.03;;;26.20;56.40;;;;;;4175551;28;20055;-50
2021/12/16 08:33:32;;;;;;;3.45;1.80;;;26.20;56.80;;;;;;4174406;28;20052;-53
2021/12/16 08:35:40;;;;;;;5.82;1.85;;;26.20;57.00;;;;;;4177099;28;20182;-53
2021/12/16 08:37:43;;;;;;;2.85;1.50;;;26.20;57.00;;;;;;4176396;28;20244;-55
2021/12/16 08:39:45;;;;;;;4.82;1.65;;;26.20;57.20;;;;;;4178255;28;20068;-51
2021/12/16 08:41:50;;;;;;;3.83;1.58;;;26.20;57.30;;;;;;4174414;28;20221;-56
2021/12/16 08:43:53;;;;;;;6.00;1.40;;;26.20;57.40;;;;;;4174125;28;20045;-54
2021/12/16 08:45:56;;;;;;;2.75;1.50;;;26.20;57.40;;;;;;4176248;28;20052;-56
2021/12/16 08:47:59;;;;;;;2.65;1.40;;;26.30;57.60;;;;;;4176162;28;20175;-51
2021/12/16 08:50:02;;;;;;;5.45;1.67;;;26.30;57.60;;;;;;4179461;28;20060;-51
2021/12/16 08:52:13;;;;;;;3.97;1.40;;;26.30;57.70;;;;;;4176440;28;20056;-55
2021/12/16 08:54:16;;;;;;;4.82;1.10;;;26.30;57.60;;;;;;4175236;28;20052;-52
2021/12/16 08:56:19;;;;;;;4.07;1.23;;;26.30;57.70;;;;;;4173307;28;20849;-52
2021/12/16 08:58:24;;;;;;;4.13;1.40;;;26.30;57.80;;;;;;4178127;28;20063;-58
2021/12/16 09:00:31;;;;;;;4.35;1.30;;;26.40;57.80;;;;;;4173052;28;20045;-54
2021/12/16 09:02:33;;;;;;;1.00;0.85;;;26.40;57.90;;;;;;4171363;28;20068;-52
2021/12/16 09:04:37;;;;;;;3.93;1.60;;;26.40;57.80;;;;;;4175976;28;20102;-56
2021/12/16 09:06:40;;;;;;;4.70;1.25;;;26.40;57.80;;;;;;4171046;28;20056;-56
2021/12/16 09:08:42;;;;;;;3.03;1.17;;;26.40;57.80;;;;;;4180879;28;20114;-56
2021/12/16 09:10:45;;;;;;;8.13;1.45;;;26.40;57.80;;;;;;4180724;28;20053;-57
2021/12/16 09:13:02;;;;;;;2.22;1.20;;;26.50;57.90;;;;;;4175129;28;20263;-56
2021/12/16 09:15:08;;;;;;;2.58;1.27;;;26.40;57.80;;;;;;4178455;28;20427;-55
2021/12/16 09:17:14;;;;;;;2.90;1.08;;;26.40;57.80;;;;;;4176270;28;20056;-54
2021/12/16 09:19:16;;;;;;;2.97;1.17;;;26.50;57.90;;;;;;4177434;28;20056;-59
2021/12/16 09:21:24;;;;;;;3.23;1.10;;;26.50;58.00;;;;;;4179004;28;20056;-58
2021/12/16 09:23:26;;;;;;;1.60;1.17;;;26.50;57.90;;;;;;4178833;28;20048;-53
2021/12/16 09:25:59;;;;;;;3.83;1.20;;;26.50;57.90;;;;;;4177028;28;20431;-58
2021/12/16 09:28:01;;;;;;;3.20;1.02;;;26.50;57.90;;;;;;4175759;28;20400;-57
2021/12/16 09:30:07;;;;;;;4.60;1.20;;;26.50;57.90;;;;;;4176651;28;20044;-57
2021/12/16 09:32:09;;;;;;;1.20;0.80;;;26.50;57.90;;;;;;4172046;28;20381;-57
2021/12/16 09:34:12;;;;;;;3.53;1.17;;;26.50;57.90;;;;;;4175819;28;20062;-57
2021/12/16 09:36:16;;;;;;;1.35;0.90;;;26.50;57.80;;;;;;4175277;28;20193;-56
2021/12/16 09:38:20;;;;;;;1.60;1.13;;;26.50;57.80;;;;;;4179103;28;20044;-54
2021/12/16 09:40:28;;;;;;;2.00;1.08;;;26.50;57.90;;;;;;4177269;28;20049;-56
2021/12/16 09:42:30;;;;;;;2.85;1.00;;;26.50;57.90;;;;;;4177330;28;20095;-57
2021/12/16 09:44:33;;;;;;;3.42;1.23;;;26.50;57.90;;;;;;4173446;28;20107;-56
2021/12/16 09:46:36;;;;;;;2.77;0.97;;;26.50;57.90;;;;;;4177556;28;20218;-55
2021/12/16 09:48:37;;;;;;;;;;;26.50;57.80;;;;;;4175859;28;20305;-53
2021/12/16 09:50:40;;;;;;;1.58;0.90;;;26.60;57.90;;;;;;4178117;28;19928;-56
2021/12/16 09:56:00;;;;;;;3.35;1.15;;;26.60;57.90;;;;;;4178252;28;20124;-55
2021/12/16 09:58:04;;;;;;;4.30;1.30;;;26.60;57.80;;;;;;4176244;28;20049;-58
2021/12/16 10:02:21;;;;;;;2.05;1.00;;;26.60;57.30;;;;;;4206944;27;20449;-57
2021/12/16 10:04:31;;;;;;;1.33;0.95;;;26.60;57.90;;;;;;4208082;28;20083;-56
2021/12/16 10:06:36;;;;;;;2.22;1.10;;;26.60;57.80;;;;;;4204561;28;20329;-56
2021/12/16 10:08:40;;;;;;;1.52;1.23;;;26.60;57.80;;;;;;4209304;28;20098;-55
2021/12/16 10:10:43;;;;;;;2.10;1.02;;;26.60;57.80;;;;;;4204925;28;20055;-57
2021/12/16 10:12:48;;;;;;;3.67;1.48;;;26.60;57.80;;;;;;4207125;28;20081;-54
2021/12/16 10:15:04;;;;;;;1.80;1.08;;;26.60;57.80;;;;;;4206073;28;20101;-55
2021/12/16 10:19:27;;;;;;;1.60;1.27;;;26.60;57.80;;;;;;4206777;28;20052;-57
2021/12/16 10:21:30;;;;;;;1.77;1.08;;;26.60;57.70;;;;;;4209249;28;20468;-56
2021/12/16 10:23:37;;;;;;;1.20;1.00;;;26.60;57.70;;;;;;4207781;28;20116;-56
2021/12/16 10:26:05;;;;;;;3.78;1.30;;;26.60;57.70;;;;;;4208532;28;20078;-57
2021/12/16 10:28:16;;;;;;;2.40;1.33;;;26.60;57.80;;;;;;4205986;28;20133;-57
2021/12/16 10:30:18;;;;;;;2.85;1.20;;;26.60;57.60;;;;;;4207588;28;20083;-54
2021/12/16 10:32:38;;;;;;;1.58;1.20;;;26.60;57.60;;;;;;4207374;28;20066;-58
2021/12/16 10:34:54;;;;;;;1.65;1.08;;;26.60;57.60;;;;;;4198319;28;20243;-56
2021/12/16 10:36:58;;;;;;;1.10;0.98;;;26.60;57.50;;;;;;4190538;28;20048;-57
2021/12/16 10:39:06;;;;;;;3.80;1.20;;;26.60;57.60;;;;;;4193196;28;20044;-56
2021/12/16 10:41:11;;;;;;;2.42;1.10;;;26.60;57.50;;;;;;4188924;28;20106;-57
2021/12/16 10:43:28;;;;;;;2.25;0.93;;;26.60;57.50;;;;;;4191940;28;20437;-57
2021/12/16 10:45:38;;;;;;;2.25;0.95;;;26.60;57.50;;;;;;4190804;28;20051;-57
2021/12/16 10:47:41;;;;;;;2.00;1.10;;;26.60;57.50;;;;;;4192095;28;20631;-55
2021/12/16 10:49:49;;;;;;;1.20;0.98;;;26.60;57.50;;;;;;4189669;28;20533;-55
2021/12/16 10:51:55;;;;;;;2.13;1.00;;;26.60;57.50;;;;;;4190031;28;20102;-54
2021/12/16 10:54:00;;;;;;;1.63;0.90;;;26.70;57.60;;;;;;4187924;28;20517;-55
2021/12/16 10:56:03;;;;;;;1.52;0.80;;;26.60;57.50;;;;;;4193331;28;20052;-54
2021/12/16 10:58:06;;;;;;;1.17;1.00;;;26.60;57.60;;;;;;4188508;28;20114;-58
2021/12/16 11:00:12;;;;;;;2.83;1.35;;;26.60;57.50;;;;;;4192017;28;20111;-51
2021/12/16 11:02:24;;;;;;;1.45;0.95;;;26.60;57.50;;;;;;4186713;28;20095;-57
2021/12/16 11:04:53;;;;;;;5.28;1.50;;;26.60;57.50;;;;;;4188484;28;20093;-57
2021/12/16 11:07:01;;;;;;;3.03;1.23;;;26.60;57.20;;;;;;4188364;28;20052;-55
2021/12/16 11:09:27;;;;;;;2.40;1.10;;;26.60;57.20;;;;;;4195564;28;20042;-56
2021/12/16 11:11:30;;;;;;;2.85;1.25;;;26.60;57.30;;;;;;4193512;28;20059;-57
2021/12/16 11:13:32;;;;;;;1.65;1.10;;;26.60;57.30;;;;;;4180791;28;20048;-50
2021/12/16 11:15:38;;;;;;;1.40;1.08;;;26.60;57.20;;;;;;4170103;28;20145;-57
2021/12/16 11:17:52;;;;;;;2.60;1.27;;;26.70;57.40;;;;;;4150760;28;20408;-53
2021/12/16 11:19:59;;;;;;;4.38;1.10;;;26.70;57.40;;;;;;4142504;28;20118;-57
2021/12/16 11:22:06;;;;;;;2.47;1.17;;;26.60;57.30;;;;;;4141790;28;20083;-58
2021/12/16 11:24:25;;;;;;;9.43;1.30;;;26.60;57.30;;;;;;4144468;28;20056;-59
2021/12/16 11:26:33;;;;;;;1.17;1.08;;;26.70;57.10;;;;;;4142694;28;21647;-59
2021/12/16 11:28:40;;;;;;;3.55;1.50;;;26.60;56.80;;;;;;4143842;28;20053;-59
2021/12/16 11:30:48;;;;;;;1.83;1.30;;;26.60;56.60;;;;;;4141001;28;20094;-59
2021/12/16 11:32:52;;;;;;;2.28;1.23;;;26.60;56.40;;;;;;4142202;28;20041;-57
2021/12/16 11:34:54;;;;;;;1.85;1.20;;;26.60;56.60;;;;;;4149190;28;20184;-58
2021/12/16 11:36:57;;;;;;;2.35;1.33;;;26.60;57.00;;;;;;4147797;28;21603;-58
2021/12/16 11:39:11;;;;;;;1.92;1.27;;;26.60;57.20;;;;;;4139967;28;20094;-60
2021/12/16 11:41:36;;;;;;;1.83;0.80;;;26.60;57.40;;;;;;4140393;28;20063;-58
2021/12/16 11:43:43;;;;;;;2.25;1.27;;;26.60;57.00;;;;;;4151853;28;20072;-60
2021/12/16 11:45:49;;;;;;;2.45;1.10;;;26.60;56.60;;;;;;4151781;28;20694;-59
2021/12/16 11:47:55;;;;;;;2.42;1.33;;;26.60;56.90;;;;;;4146911;28;21626;-60
2021/12/16 11:50:03;;;;;;;1.70;1.20;;;26.60;57.10;;;;;;4143825;28;20064;-58
2021/12/16 11:52:10;;;;;;;2.38;1.38;;;26.60;57.30;;;;;;4142660;28;20063;-58
2021/12/16 11:54:36;;;;;;;2.53;1.25;;;26.60;57.40;;;;;;4143985;28;20858;-60
2021/12/16 11:56:56;;;;;;;3.03;1.30;;;26.60;57.50;;;;;;4143827;28;20076;-59
2021/12/16 11:58:59;;;;;;;2.13;1.05;;;26.60;57.50;;;;;;4152251;28;20075;-60
2021/12/16 12:01:15;;;;;;;1.83;0.98;;;26.60;57.50;;;;;;4149424;28;20059;-60
2021/12/16 12:03:17;;;;;;;1.73;1.00;;;26.60;57.50;;;;;;4142698;28;20052;-58
2021/12/16 12:05:37;;;;;;;1.63;1.15;;;26.60;57.60;;;;;;4143838;28;20095;-60
2021/12/16 12:07:45;;;;;;;2.22;1.17;;;26.60;57.50;;;;;;4145614;28;20499;-60
2021/12/16 12:09:52;;;;;;;3.05;1.05;;;26.60;57.30;;;;;;4142961;28;20743;-59
2021/12/16 12:11:55;;;;;;;2.10;1.20;;;26.60;57.40;;;;;;4142528;28;20056;-57
2021/12/16 12:14:02;;;;;;;3.95;1.33;;;26.60;57.30;;;;;;4144089;28;20048;-58
2021/12/16 12:16:07;;;;;;;4.35;1.00;;;26.60;57.20;;;;;;4148029;28;20052;-56
2021/12/16 12:18:09;;;;;;;3.03;1.30;;;26.50;57.20;;;;;;4151904;28;20131;-55
2021/12/16 12:20:11;;;;;;;4.53;1.38;;;26.50;57.10;;;;;;4145683;28;20058;-60
2021/12/16 12:22:14;;;;;;;3.60;0.90;;;26.50;57.20;;;;;;4148589;28;20104;-59
2021/12/16 12:24:18;;;;;;;5.40;1.35;;;26.50;57.10;;;;;;4159046;28;20098;-57
2021/12/16 12:26:22;;;;;;;3.70;1.25;;;26.50;57.10;;;;;;4154626;28;20056;-56
2021/12/16 12:28:24;;;;;;;2.28;1.38;;;26.50;57.00;;;;;;4149805;28;20063;-52
2021/12/16 12:30:26;;;;;;;3.90;1.23;;;26.50;57.00;;;;;;4146175;28;20049;-57
2021/12/16 12:32:33;;;;;;;5.07;1.03;;;26.50;57.00;;;;;;4151558;28;20071;-59
2021/12/16 12:34:37;;;;;;;3.63;1.00;;;26.50;57.00;;;;;;4143965;28;21350;-58
2021/12/16 12:36:41;;;;;;;5.60;1.27;;;26.50;57.20;;;;;;4141974;28;20056;-64
2021/12/16 12:38:42;;;;;;;;;;;26.50;57.20;;;;;;4144455;28;20087;-61
2021/12/16 12:40:45;;;;;;;4.32;1.50;;;26.50;57.20;;;;;;4148954;28;20363;-64
2021/12/16 12:42:50;;;;;;;10.38;2.03;;;26.50;57.30;;;;;;4148578;28;20959;-59
2021/12/16 12:44:53;;;;;;;19.92;2.53;;;26.50;57.30;;;;;;4143144;28;20053;-60
2021/12/16 12:46:59;;;;;;;12.38;2.30;;;26.50;57.50;;;;;;4136909;28;20056;-59
2021/12/16 12:49:06;;;;;;;10.60;1.67;;;26.50;57.50;;;;;;4144118;28;20052;-60
2021/12/16 12:51:09;;;;;;;8.18;1.55;;;26.50;57.60;;;;;;4149086;28;20052;-61
2021/12/16 12:53:18;;;;;;;6.00;1.27;;;26.50;57.60;;;;;;4152665;28;20059;-61
2021/12/16 12:55:28;;;;;;;7.45;1.38;;;26.50;57.50;;;;;;4148510;28;20060;-58
2021/12/16 12:57:34;;;;;;;6.25;1.42;;;26.50;57.50;;;;;;4147079;28;21749;-60
2021/12/16 12:59:39;;;;;;;1.98;1.00;;;26.50;57.50;;;;;;4141249;28;20052;-60
2021/12/16 13:02:18;;;;;;;5.93;1.20;;;26.50;56.90;;;;;;4152762;27;20437;-59
2021/12/16 13:04:23;;;;;;;6.40;1.27;;;26.50;57.60;;;;;;4152017;28;20056;-62
2021/12/16 13:06:26;;;;;;;10.98;1.65;;;26.50;57.40;;;;;;4162601;28;20075;-61
2021/12/16 13:08:29;;;;;;;;;;;26.50;57.60;;;;;;4160576;28;20052;-62
2021/12/16 13:10:51;;;;;;;7.10;1.50;;;26.50;57.30;;;;;;4153816;28;19932;-61
2021/12/16 13:13:22;;;;;;;3.05;1.02;;;26.50;57.20;;;;;;4162986;28;20051;-61
2021/12/16 13:15:39;;;;;;;5.72;1.48;;;26.40;57.30;;;;;;4151124;28;20059;-61
2021/12/16 13:25:19;;;;;;;5.22;1.00;;;26.30;57.90;;;;;;4157177;28;20048;-60
2021/12/16 13:32:07;;;;;;;2.47;0.98;;;26.30;57.50;;;;;;4157273;28;20044;-60
2021/12/16 13:34:02;;;;;;;4.05;0.68;;;26.20;57.40;;;;;;4154158;28;20052;-62
2021/12/16 13:36:15;;;;;;;;;;;26.20;57.40;;;;;;4167139;28;20131;-60
2021/12/16 13:38:21;;;;;;;1.63;0.80;;;26.20;57.40;;;;;;4165769;28;19982;-60
2021/12/16 13:40:33;;;;;;;2.85;1.02;;;26.20;57.50;;;;;;4165499;28;20312;-60
2021/12/16 13:42:51;;;;;;;2.63;1.00;;;26.20;57.50;;;;;;4164180;28;20052;-63
2021/12/16 13:45:06;;;;;;;3.78;0.80;;;26.20;57.60;;;;;;4168878;28;20048;-59
2021/12/16 14:02:50;;;;;;;1.02;0.68;;;26.10;58.00;;;;;;4163678;28;20067;-64
2021/12/16 14:07:52;;;;;;;1.60;0.68;;;26.10;58.40;;;;;;4163721;28;20098;-61
2021/12/16 14:10:09;;;;;;;2.20;0.60;;;26.00;58.40;;;;;;4155423;28;20071;-61
2021/12/16 14:24:12;;;;;;;0.95;0.70;;;26.00;58.40;;;;;;4147119;28;20068;-59